Search for airport 
image banner adimage banner ad
image banner ad

DFOO - Bobo-Dioulasso

Located in Bobo-Dioulasso, Burkina Faso

ICAO - DFOO, IATA - BOY

Data provided by Airmate  

General information

Coordinates: N11°10'3" W4°19'16"
Elevation is 1511 feet MSL.
 
Rated:
View ratings: [VIEW]


View others Airports in Houet

Operational data

Open for public use
Current time UTC:
Current local time:
Weather
METAR: DFOO 141400Z 34005KT 290V030 9999 SCT016 SCT026 FEW033CB 32/26 Q1010
TAF: TAF DFOO 141100Z 1412/1512 VRB08KT 9999 SCT016 TEMPO 1416/1424 4000 TS SHRA SCT016 FEW030CB
View NOTAMs / SUP AIP / TFR affecting this airport [VIEW]
Communications frequencies: [VIEW]

Runways:

RWY identifierQFULength (ft)Width (ft)SurfaceLDA (ft)
0653°10826148ASP
24233°10827148

Airport contact information

Address: Bobo-Dioulasso Burkina Faso

Satellite view of DFOO